Time;durP1;ratioP1;P1;durP2;ratioP2;P2;SDS_P1;SDS_P2;PMS_P1;PMS_P2;Temp;Humidity;BMP_temperature;BMP_pressure;BME280_temperature;BME280_humidity;BME280_pressure;Samples;Min_cycle;Max_cycle;Signal;HPM_P1;HPM_P2
2023/07/27 00:02:23;;;;;;;13.33;12.73;;;13.70;1.00;;;;;;5038398;28;20189;-48
2023/07/27 00:04:48;;;;;;;13.40;12.70;;;13.60;99.90;;;;;;5040068;28;20280;-49
2023/07/27 00:07:14;;;;;;;13.70;12.90;;;13.60;99.90;;;;;;5039315;28;20519;-48
2023/07/27 00:09:40;;;;;;;13.43;12.73;;;13.60;99.90;;;;;;5039105;28;20432;-50
2023/07/27 00:12:06;;;;;;;13.30;12.60;;;13.50;99.90;;;;;;5039706;28;20185;-51
2023/07/27 00:14:31;;;;;;;13.70;13.00;;;13.50;99.90;;;;;;5053879;28;20213;-47
2023/07/27 00:16:57;;;;;;;13.77;13.07;;;13.50;99.90;;;;;;5037888;28;20435;-50
2023/07/27 00:19:22;;;;;;;13.50;12.70;;;13.40;45.60;;;;;;5037580;28;20604;-49
2023/07/27 00:21:48;;;;;;;12.87;12.17;;;13.40;99.90;;;;;;5038806;28;20221;-47
2023/07/27 00:24:14;;;;;;;13.80;13.00;;;13.40;99.90;;;;;;5039357;28;20237;-49
2023/07/27 00:26:41;;;;;;;14.57;13.67;;;13.40;99.90;;;;;;5039013;28;20564;-48
2023/07/27 00:29:07;;;;;;;13.90;13.20;;;13.40;99.90;;;;;;5038605;28;20659;-53
2023/07/27 00:31:33;;;;;;;13.93;13.00;;;13.40;99.90;;;;;;5039122;28;20509;-52
2023/07/27 00:33:58;;;;;;;13.40;12.70;;;13.30;99.90;;;;;;5038130;28;20468;-48
2023/07/27 00:36:24;;;;;;;13.50;12.70;;;13.30;99.90;;;;;;5038030;28;20225;-52
2023/07/27 00:38:49;;;;;;;13.37;12.67;;;13.30;99.90;;;;;;5038404;28;20178;-48
2023/07/27 00:41:15;;;;;;;12.87;12.17;;;13.30;99.90;;;;;;5038716;28;20189;-47
2023/07/27 00:43:40;;;;;;;13.83;13.13;;;13.30;99.90;;;;;;5039294;28;20746;-49
2023/07/27 00:46:07;;;;;;;13.00;12.30;;;13.40;99.90;;;;;;5039240;28;20197;-53
2023/07/27 00:48:33;;;;;;;13.47;12.77;;;13.50;99.90;;;;;;5038869;28;20221;-49
2023/07/27 00:50:59;;;;;;;13.40;12.70;;;13.50;99.90;;;;;;5037097;28;20622;-48
2023/07/27 00:53:24;;;;;;;13.33;12.63;;;13.50;38.70;;;;;;5038202;28;20440;-52
2023/07/27 00:55:50;;;;;;;13.03;12.33;;;13.60;1.00;;;;;;5038357;28;20213;-54
2023/07/27 00:58:16;;;;;;;12.87;12.27;;;13.70;1.00;;;;;;5039118;28;20993;-53
2023/07/27 01:00:42;;;;;;;12.83;12.13;;;13.80;1.00;;;;;;5036726;28;20474;-48
2023/07/27 01:03:08;;;;;;;12.90;12.20;;;13.80;99.90;;;;;;5039164;28;20265;-48
2023/07/27 01:05:35;;;;;;;13.30;12.50;;;13.80;99.90;;;;;;5037607;28;20442;-54
2023/07/27 01:08:00;;;;;;;12.63;12.03;;;13.80;99.90;;;;;;5037484;28;20269;-50
2023/07/27 01:11:02;;;;;;;12.67;12.07;;;13.80;99.90;;;;;;5038563;28;20519;-52
2023/07/27 01:13:39;;;;;;;13.20;12.40;;;13.80;99.90;;;;;;5038495;28;20197;-44
2023/07/27 01:16:12;;;;;;;12.60;12.00;;;13.80;99.90;;;;;;5041707;28;20431;-49
2023/07/27 01:19:02;;;;;;;13.10;12.40;;;13.70;99.90;;;;;;5042099;28;20410;-49
2023/07/27 01:21:34;;;;;;;13.00;12.30;;;13.70;99.90;;;;;;5040900;28;20468;-52
2023/07/27 01:24:20;;;;;;;13.00;12.40;;;13.70;99.90;;;;;;5041121;28;20518;-51
2023/07/27 01:27:13;;;;;;;13.60;12.90;;;13.60;1.00;;;;;;5042038;28;20451;-50
2023/07/27 01:30:08;;;;;;;12.50;11.80;;;13.60;1.00;;;;;;5040815;28;20744;-47
2023/07/27 01:32:37;;;;;;;13.07;12.47;;;13.50;7.30;;;;;;5042560;28;20447;-53
2023/07/27 01:35:06;;;;;;;13.20;12.57;;;13.30;73.30;;;;;;5040163;28;20558;-49
2023/07/27 01:37:33;;;;;;;13.90;13.10;;;13.30;99.90;;;;;;5038830;28;20519;-52
2023/07/27 01:40:01;;;;;;;12.80;12.00;;;13.20;99.90;;;;;;5041716;28;20463;-48
2023/07/27 01:42:29;;;;;;;13.10;12.40;;;13.10;99.90;;;;;;5042302;28;20408;-49
2023/07/27 01:44:56;;;;;;;13.13;12.43;;;13.10;1.00;;;;;;5042351;28;20776;-52
2023/07/27 01:47:23;;;;;;;13.50;12.80;;;13.00;1.00;;;;;;5040571;28;21194;-52
2023/07/27 01:49:50;;;;;;;13.63;12.83;;;12.90;1.00;;;;;;5021593;28;20436;-47
2023/07/27 01:52:16;;;;;;;14.60;13.70;;;12.80;1.00;;;;;;5042482;28;20766;-46
2023/07/27 01:54:43;;;;;;;13.23;12.53;;;12.80;1.00;;;;;;5040335;28;21155;-52
2023/07/27 01:57:10;;;;;;;14.20;13.40;;;12.70;1.00;;;;;;5042279;28;20872;-45
2023/07/27 01:59:38;;;;;;;13.27;12.50;;;12.60;1.00;;;;;;5040387;28;20435;-50
2023/07/27 02:02:05;;;;;;;14.07;13.20;;;12.60;1.00;;;;;;5040582;28;20493;-54
2023/07/27 02:04:31;;;;;;;13.40;12.60;;;12.50;1.00;;;;;;5041999;28;20467;-49
2023/07/27 02:06:57;;;;;;;14.13;13.33;;;12.50;1.00;;;;;;5042018;28;20422;-50
2023/07/27 02:09:22;;;;;;;13.40;12.67;;;12.50;1.00;;;;;;5041090;28;20680;-47
2023/07/27 02:11:55;;;;;;;13.37;12.57;;;12.50;1.00;;;;;;5041618;28;20580;-52
2023/07/27 02:14:36;;;;;;;13.03;12.33;;;12.50;1.00;;;;;;5022756;28;20220;-49
2023/07/27 02:17:08;;;;;;;13.30;12.50;;;12.40;1.00;;;;;;5040328;28;21024;-50
2023/07/27 02:19:37;;;;;;;13.13;12.43;;;12.40;1.00;;;;;;5037915;28;21024;-53
2023/07/27 02:22:04;;;;;;;13.20;12.47;;;12.40;1.30;;;;;;5040367;28;20440;-53
2023/07/27 02:24:30;;;;;;;13.13;12.43;;;12.30;17.90;;;;;;5041376;28;20471;-50
2023/07/27 02:26:56;;;;;;;14.20;13.40;;;12.30;21.90;;;;;;5040642;28;20771;-53
2023/07/27 02:29:21;;;;;;;13.47;12.73;;;12.20;30.30;;;;;;5040633;28;21014;-51
2023/07/27 02:31:47;;;;;;;13.07;12.37;;;12.30;31.50;;;;;;5040865;28;20566;-48
2023/07/27 02:34:13;;;;;;;13.47;12.73;;;12.30;34.70;;;;;;5039962;28;20216;-50
2023/07/27 02:36:38;;;;;;;13.53;12.73;;;12.30;33.30;;;;;;5040929;28;20314;-50
2023/07/27 02:39:04;;;;;;;14.33;13.23;;;12.30;32.30;;;;;;5040745;28;20840;-51
2023/07/27 02:41:29;;;;;;;13.80;12.93;;;12.30;30.70;;;;;;5040962;28;20618;-48
2023/07/27 02:43:55;;;;;;;13.43;12.63;;;12.20;29.80;;;;;;5041138;28;20200;-51
2023/07/27 02:46:20;;;;;;;13.23;12.33;;;12.20;37.80;;;;;;5041025;28;20213;-54
2023/07/27 02:48:46;;;;;;;13.10;12.40;;;12.20;46.70;;;;;;5040831;28;20193;-52
2023/07/27 02:51:11;;;;;;;13.67;12.83;;;12.20;55.50;;;;;;5038926;28;20656;-49
2023/07/27 02:53:37;;;;;;;14.00;13.20;;;12.10;59.50;;;;;;5040011;28;20185;-49
2023/07/27 02:56:04;;;;;;;13.77;12.97;;;12.10;67.50;;;;;;5040231;28;20182;-51
2023/07/27 02:58:30;;;;;;;13.70;12.80;;;12.10;79.50;;;;;;5038321;28;20190;-52
2023/07/27 03:00:58;;;;;;;13.67;12.93;;;12.00;87.40;;;;;;5040407;28;20980;-46
2023/07/27 03:03:24;;;;;;;14.50;13.60;;;12.00;96.40;;;;;;5040650;28;20417;-50
2023/07/27 03:05:59;;;;;;;13.73;12.93;;;12.00;99.30;;;;;;5039296;28;20760;-50
2023/07/27 03:08:26;;;;;;;13.73;12.93;;;12.00;99.90;;;;;;5039673;28;20264;-53
2023/07/27 03:10:52;;;;;;;13.27;12.57;;;12.00;99.90;;;;;;5040261;28;20459;-50
2023/07/27 03:13:17;;;;;;;14.53;13.63;;;11.90;99.90;;;;;;5040254;28;20412;-52
2023/07/27 03:15:43;;;;;;;14.90;13.90;;;11.90;99.90;;;;;;5039858;28;20741;-47
2023/07/27 03:18:09;;;;;;;14.63;13.73;;;11.90;98.10;;;;;;5039645;28;20188;-50
2023/07/27 03:20:41;;;;;;;14.67;13.77;;;11.80;97.20;;;;;;5039142;28;20190;-52
2023/07/27 03:23:08;;;;;;;13.93;12.93;;;11.80;99.90;;;;;;5038619;28;20549;-52
2023/07/27 03:25:34;;;;;;;13.63;12.83;;;11.70;99.90;;;;;;5039658;28;20824;-49
2023/07/27 03:28:05;;;;;;;14.10;13.30;;;11.70;99.90;;;;;;5040316;28;20811;-45
2023/07/27 03:30:31;;;;;;;14.33;13.27;;;11.70;99.90;;;;;;5035334;28;20428;-48
2023/07/27 03:32:56;;;;;;;14.37;13.47;;;11.70;99.90;;;;;;5039528;28;20424;-54
2023/07/27 03:35:22;;;;;;;13.73;12.93;;;11.70;99.90;;;;;;5039942;28;20679;-49
2023/07/27 03:37:50;;;;;;;15.07;14.03;;;11.70;99.90;;;;;;5039183;28;20185;-46
2023/07/27 03:40:16;;;;;;;14.40;13.30;;;11.70;99.90;;;;;;5019783;28;20440;-51
2023/07/27 03:42:41;;;;;;;14.57;13.57;;;11.70;99.90;;;;;;5039719;28;20470;-51
2023/07/27 03:45:09;;;;;;;13.90;13.00;;;11.70;99.90;;;;;;5038400;28;20186;-51
2023/07/27 03:47:34;;;;;;;14.00;13.10;;;11.70;99.90;;;;;;5039866;28;20718;-53
2023/07/27 03:50:00;;;;;;;13.97;12.80;;;11.70;99.90;;;;;;5038108;28;20436;-44
2023/07/27 03:52:26;;;;;;;14.27;13.37;;;11.70;99.90;;;;;;5021951;28;20551;-49
2023/07/27 03:54:51;;;;;;;14.27;13.37;;;11.70;99.90;;;;;;5037438;28;20255;-51
2023/07/27 03:57:17;;;;;;;12.90;12.10;;;11.70;99.90;;;;;;5038456;28;20791;-47
2023/07/27 03:59:42;;;;;;;12.80;11.77;;;11.70;99.90;;;;;;5036808;28;20235;-47
2023/07/27 04:02:08;;;;;;;13.87;12.77;;;11.70;99.90;;;;;;5037379;28;20189;-54
2023/07/27 04:04:33;;;;;;;13.43;12.63;;;11.70;99.90;;;;;;5038644;28;20186;-51
2023/07/27 04:06:59;;;;;;;13.03;12.13;;;11.70;99.90;;;;;;5037623;28;20225;-53
2023/07/27 04:09:25;;;;;;;13.87;12.90;;;11.80;99.90;;;;;;5036127;28;20185;-51
2023/07/27 04:11:51;;;;;;;13.63;12.70;;;11.80;99.90;;;;;;5037215;28;20225;-51
2023/07/27 04:14:17;;;;;;;13.40;12.50;;;11.80;99.90;;;;;;5036080;28;20197;-50
2023/07/27 04:16:43;;;;;;;13.13;12.33;;;11.80;99.90;;;;;;5038885;28;20482;-47
2023/07/27 04:19:09;;;;;;;12.80;12.00;;;11.80;99.90;;;;;;5036208;28;20177;-48
2023/07/27 04:21:34;;;;;;;13.57;12.57;;;11.90;99.90;;;;;;5036016;28;20166;-50
2023/07/27 04:24:00;;;;;;;14.13;13.20;;;11.90;99.90;;;;;;5037396;28;21554;-50
2023/07/27 04:26:25;;;;;;;12.87;12.03;;;11.90;99.90;;;;;;5013541;28;20320;-45
2023/07/27 04:28:51;;;;;;;15.17;13.87;;;11.90;99.90;;;;;;5038901;28;20201;-51
2023/07/27 04:31:16;;;;;;;12.03;11.13;;;11.90;99.90;;;;;;5039550;28;20727;-47
2023/07/27 04:33:42;;;;;;;13.97;13.17;;;12.00;99.90;;;;;;5039418;28;20467;-52
2023/07/27 04:36:08;;;;;;;14.70;13.60;;;12.00;99.90;;;;;;5039211;28;20237;-48
2023/07/27 04:38:33;;;;;;;14.03;13.10;;;12.00;99.90;;;;;;5036672;28;20258;-46
2023/07/27 04:40:59;;;;;;;13.50;12.60;;;12.10;99.90;;;;;;5038048;28;20661;-49
2023/07/27 04:43:24;;;;;;;13.50;12.60;;;12.10;99.90;;;;;;5037154;28;20232;-47
2023/07/27 04:45:50;;;;;;;14.07;13.10;;;12.20;99.90;;;;;;5017488;28;20277;-53
2023/07/27 04:48:16;;;;;;;13.40;12.50;;;12.20;99.90;;;;;;5042687;28;20268;-48
2023/07/27 04:50:41;;;;;;;13.77;12.87;;;12.30;99.90;;;;;;5043118;28;20511;-47
2023/07/27 04:53:07;;;;;;;13.70;12.90;;;12.30;99.90;;;;;;5025245;28;20723;-48
2023/07/27 04:55:32;;;;;;;13.67;12.87;;;12.40;99.90;;;;;;5042515;28;20656;-53
2023/07/27 04:57:59;;;;;;;13.63;12.70;;;12.40;99.90;;;;;;5043194;28;20174;-50
2023/07/27 05:00:24;;;;;;;13.67;12.50;;;12.50;99.90;;;;;;5042096;28;20181;-47
2023/07/27 05:02:50;;;;;;;13.93;12.97;;;12.50;99.90;;;;;;5042920;28;20423;-50
2023/07/27 05:05:15;;;;;;;14.00;13.10;;;12.60;99.90;;;;;;5042682;28;20185;-46
2023/07/27 05:07:41;;;;;;;14.13;12.93;;;12.70;99.90;;;;;;5042631;28;20192;-51
2023/07/27 05:10:07;;;;;;;13.43;12.53;;;12.80;99.90;;;;;;5042907;28;20192;-54
2023/07/27 05:12:32;;;;;;;13.33;12.53;;;12.90;99.90;;;;;;5042732;28;20260;-53
2023/07/27 05:14:59;;;;;;;13.80;12.90;;;13.00;99.90;;;;;;5042479;28;20205;-50
2023/07/27 05:17:24;;;;;;;13.93;13.13;;;13.10;95.90;;;;;;5042591;28;20184;-48
2023/07/27 05:19:53;;;;;;;13.67;12.77;;;13.20;85.60;;;;;;5042182;28;20709;-48
2023/07/27 05:22:18;;;;;;;13.43;12.53;;;13.30;75.40;;;;;;5042741;28;20185;-49
2023/07/27 05:24:44;;;;;;;13.50;12.70;;;13.40;53.30;;;;;;5042512;28;20467;-52
2023/07/27 05:27:09;;;;;;;13.37;12.57;;;13.50;49.00;;;;;;5042890;28;20198;-48
2023/07/27 05:29:35;;;;;;;13.00;12.20;;;13.60;46.20;;;;;;5023958;28;20189;-52
2023/07/27 05:32:00;;;;;;;13.13;12.43;;;13.60;38.90;;;;;;5023400;28;20194;-44
2023/07/27 05:34:26;;;;;;;13.30;12.60;;;13.70;30.00;;;;;;5041921;28;20213;-49
2023/07/27 05:36:52;;;;;;;14.33;13.43;;;13.80;25.70;;;;;;5024590;28;20185;-53
2023/07/27 05:39:17;;;;;;;12.90;12.10;;;14.00;18.80;;;;;;5042362;28;20259;-52
2023/07/27 05:41:43;;;;;;;13.23;12.43;;;14.00;12.10;;;;;;5041972;28;20547;-51
2023/07/27 05:44:08;;;;;;;14.33;13.43;;;14.20;9.60;;;;;;5042101;28;20726;-49
2023/07/27 05:46:34;;;;;;;13.20;12.50;;;14.30;1.00;;;;;;5042237;28;20188;-48
2023/07/27 05:49:00;;;;;;;13.43;12.63;;;14.40;1.00;;;;;;5024060;28;20185;-51
2023/07/27 05:51:25;;;;;;;13.30;12.60;;;14.60;1.00;;;;;;5041545;28;20714;-51
2023/07/27 05:53:52;;;;;;;13.30;12.60;;;14.70;1.00;;;;;;5041973;28;20196;-49
2023/07/27 05:56:18;;;;;;;12.60;11.90;;;14.80;1.00;;;;;;5041407;28;20220;-47
2023/07/27 05:58:43;;;;;;;13.77;12.87;;;15.00;1.00;;;;;;5041835;28;20428;-46
2023/07/27 06:01:09;;;;;;;13.17;12.37;;;15.10;1.00;;;;;;5041865;28;20178;-53
2023/07/27 06:03:35;;;;;;;12.33;11.60;;;15.30;1.00;;;;;;5041306;28;20681;-50
2023/07/27 06:06:00;;;;;;;12.90;12.20;;;15.50;1.00;;;;;;5041542;28;20308;-44
2023/07/27 06:08:27;;;;;;;13.60;12.90;;;15.60;1.00;;;;;;5041595;28;20184;-51
2023/07/27 06:11:19;;;;;;;14.03;13.23;;;15.80;99.90;;;;;;5041613;28;20549;-54
2023/07/27 06:13:46;;;;;;;13.10;12.40;;;15.90;1.00;;;;;;5038335;28;20482;-49
2023/07/27 06:16:12;;;;;;;13.73;12.93;;;15.90;99.90;;;;;;5041741;28;20417;-49
2023/07/27 06:18:37;;;;;;;13.30;12.50;;;15.90;1.00;;;;;;5041306;28;20841;-53
2023/07/27 06:21:03;;;;;;;13.07;12.37;;;16.00;1.00;;;;;;5041498;28;20261;-49
2023/07/27 06:23:28;;;;;;;13.30;12.40;;;16.10;1.00;;;;;;5040513;28;20725;-48
2023/07/27 06:25:54;;;;;;;13.00;12.30;;;16.30;1.00;;;;;;5041176;28;20410;-50
2023/07/27 06:28:20;;;;;;;13.77;13.03;;;16.50;1.00;;;;;;5041321;28;20711;-48
2023/07/27 06:30:45;;;;;;;13.13;12.43;;;16.70;99.90;;;;;;5040980;28;20185;-50
2023/07/27 06:33:11;;;;;;;13.00;12.40;;;16.80;1.00;;;;;;5040418;28;20194;-51
2023/07/27 06:35:37;;;;;;;14.53;13.50;;;17.00;1.00;;;;;;5040893;28;20201;-47
2023/07/27 06:38:02;;;;;;;13.33;12.63;;;17.10;1.00;;;;;;5040988;28;20507;-53
2023/07/27 06:40:28;;;;;;;12.70;12.00;;;17.20;1.00;;;;;;5040628;28;20277;-46
2023/07/27 06:42:54;;;;;;;13.13;12.43;;;17.40;1.00;;;;;;5040898;28;20570;-49
2023/07/27 06:45:20;;;;;;;13.33;12.63;;;17.40;99.90;;;;;;5041258;28;20637;-47
2023/07/27 06:47:46;;;;;;;12.50;11.90;;;17.60;99.90;;;;;;5040779;28;20184;-49
2023/07/27 06:50:11;;;;;;;13.80;13.00;;;17.70;99.90;;;;;;5040740;28;20926;-51
2023/07/27 06:52:37;;;;;;;13.60;12.80;;;17.80;99.90;;;;;;5021280;28;20207;-53
2023/07/27 06:55:03;;;;;;;13.03;12.33;;;17.90;99.90;;;;;;5022529;28;20558;-47
2023/07/27 06:57:29;;;;;;;13.07;12.27;;;18.00;99.90;;;;;;5041257;28;20794;-50
2023/07/27 06:59:55;;;;;;;14.07;13.20;;;18.00;99.90;;;;;;5040998;28;20905;-50
2023/07/27 07:02:21;;;;;;;13.00;12.30;;;18.10;99.90;;;;;;5039392;28;20180;-51
2023/07/27 07:04:47;;;;;;;13.27;12.60;;;18.10;99.90;;;;;;5040237;28;20197;-49
2023/07/27 07:07:13;;;;;;;13.60;12.80;;;18.30;99.90;;;;;;5040316;28;20416;-52
2023/07/27 07:09:39;;;;;;;14.17;13.30;;;18.30;99.90;;;;;;5039598;28;20234;-48
2023/07/27 07:12:06;;;;;;;12.90;12.20;;;18.50;99.90;;;;;;5039630;28;20432;-54
2023/07/27 07:14:32;;;;;;;13.87;13.00;;;18.50;33.00;;;;;;5040500;28;20266;-46
2023/07/27 07:16:58;;;;;;;12.87;12.17;;;18.50;1.00;;;;;;5040345;28;20412;-50
2023/07/27 07:19:24;;;;;;;12.60;12.00;;;18.70;1.00;;;;;;5040869;28;20408;-53
2023/07/27 07:21:49;;;;;;;12.70;12.10;;;19.00;1.00;;;;;;5039535;28;20444;-48
2023/07/27 07:24:15;;;;;;;12.67;11.97;;;19.10;1.00;;;;;;5040316;28;20234;-52
2023/07/27 07:26:41;;;;;;;12.50;11.90;;;19.30;1.00;;;;;;5040340;28;20478;-50
2023/07/27 07:29:07;;;;;;;12.80;12.10;;;19.60;1.00;;;;;;5040480;28;20196;-49
2023/07/27 07:31:33;;;;;;;12.50;11.60;;;19.70;1.00;;;;;;5038810;28;20186;-53
2023/07/27 07:33:58;;;;;;;12.20;11.50;;;19.90;1.00;;;;;;5039437;28;20464;-51
2023/07/27 07:36:25;;;;;;;13.27;12.57;;;20.10;1.00;;;;;;5039631;28;20264;-50
2023/07/27 07:38:51;;;;;;;12.97;12.37;;;20.40;1.00;;;;;;5039544;28;20366;-52
2023/07/27 07:41:17;;;;;;;12.57;11.97;;;20.70;1.00;;;;;;5039506;28;20748;-47
2023/07/27 07:43:42;;;;;;;11.63;11.13;;;20.90;1.00;;;;;;5037274;28;20490;-46
2023/07/27 07:46:12;;;;;;;13.27;12.40;;;21.10;1.00;;;;;;5019919;28;20516;-49
2023/07/27 07:48:38;;;;;;;12.70;12.00;;;21.30;1.00;;;;;;5039976;28;20182;-51
2023/07/27 07:51:13;;;;;;;11.20;10.50;;;21.50;1.00;;;;;;5039342;28;20432;-54
2023/07/27 07:53:39;;;;;;;11.90;11.37;;;21.70;1.00;;;;;;5039130;28;20168;-52
2023/07/27 07:56:05;;;;;;;13.13;12.43;;;22.00;1.00;;;;;;5040128;28;20436;-50
2023/07/27 07:58:31;;;;;;;13.10;12.40;;;22.20;1.00;;;;;;5039451;28;20419;-53
2023/07/27 08:00:57;;;;;;;13.60;12.90;;;22.20;99.90;;;;;;5039179;28;20261;-45
2023/07/27 08:03:22;;;;;;;12.70;12.10;;;22.20;99.90;;;;;;5039532;28;20764;-46
2023/07/27 08:05:48;;;;;;;12.80;12.20;;;22.30;99.90;;;;;;5020954;28;20197;-51
2023/07/27 08:08:14;;;;;;;13.00;12.20;;;22.60;99.90;;;;;;5039700;28;20174;-50
2023/07/27 08:10:40;;;;;;;12.30;11.70;;;22.80;99.90;;;;;;5039149;28;20173;-51
2023/07/27 08:13:05;;;;;;;13.07;12.27;;;22.90;99.90;;;;;;5039620;28;20431;-45
2023/07/27 08:15:31;;;;;;;12.40;11.80;;;23.10;99.90;;;;;;5019772;28;20255;-51
2023/07/27 08:17:56;;;;;;;13.27;12.57;;;23.30;99.90;;;;;;5039199;28;20182;-49
2023/07/27 08:20:22;;;;;;;13.20;12.50;;;23.10;99.90;;;;;;5021144;28;20189;-51
2023/07/27 08:22:48;;;;;;;12.57;11.97;;;23.30;99.90;;;;;;5039431;28;20232;-50
2023/07/27 08:25:14;;;;;;;12.70;12.10;;;23.40;99.90;;;;;;5038744;28;20337;-53
2023/07/27 08:27:40;;;;;;;12.90;12.20;;;23.40;99.90;;;;;;5039197;28;20170;-47
2023/07/27 08:30:07;;;;;;;12.00;11.40;;;23.10;99.90;;;;;;5039135;28;20428;-46
2023/07/27 08:32:33;;;;;;;12.07;11.47;;;23.20;99.90;;;;;;5039354;28;20786;-42
2023/07/27 08:34:58;;;;;;;12.40;11.80;;;23.20;99.90;;;;;;5038859;28;20460;-45
2023/07/27 08:37:24;;;;;;;13.27;12.43;;;23.00;99.90;;;;;;5039180;28;20178;-43
2023/07/27 08:39:50;;;;;;;13.00;12.20;;;22.80;99.90;;;;;;5039388;28;20181;-45
2023/07/27 08:42:16;;;;;;;12.70;12.00;;;23.10;99.90;;;;;;5039177;28;20418;-43
2023/07/27 08:44:46;;;;;;;12.80;12.10;;;22.90;99.90;;;;;;5039288;28;20936;-42
2023/07/27 08:47:11;;;;;;;13.53;12.83;;;22.80;99.90;;;;;;5039510;28;20190;-43
2023/07/27 08:49:38;;;;;;;12.73;12.03;;;22.90;99.90;;;;;;5039030;28;20424;-46
2023/07/27 08:52:04;;;;;;;12.87;12.27;;;22.90;99.90;;;;;;5039253;28;20177;-45
2023/07/27 08:54:30;;;;;;;12.90;12.20;;;23.20;99.90;;;;;;5038221;28;20476;-47
2023/07/27 08:56:56;;;;;;;12.37;11.43;;;23.20;99.90;;;;;;5038956;28;20420;-47
2023/07/27 08:59:24;;;;;;;13.43;12.50;;;23.30;99.90;;;;;;5038965;28;20409;-44
2023/07/27 09:01:50;;;;;;;12.30;11.70;;;23.40;99.90;;;;;;5021234;28;20716;-43
2023/07/27 09:04:16;;;;;;;11.67;10.97;;;23.20;99.90;;;;;;5038266;28;20551;-45
2023/07/27 09:06:46;;;;;;;12.20;11.60;;;23.30;99.90;;;;;;5039006;28;20534;-42
2023/07/27 09:09:16;;;;;;;11.87;11.30;;;23.20;99.90;;;;;;5021198;28;20671;-41
2023/07/27 09:11:42;;;;;;;12.60;12.00;;;23.20;99.90;;;;;;5039366;28;21125;-44
2023/07/27 09:14:09;;;;;;;12.00;11.40;;;23.30;99.90;;;;;;5038254;28;20466;-46
2023/07/27 09:16:35;;;;;;;11.83;11.13;;;23.30;99.90;;;;;;5038586;28;20424;-43
2023/07/27 09:19:02;;;;;;;11.90;11.30;;;23.20;99.90;;;;;;5039044;28;20503;-40
2023/07/27 09:21:36;;;;;;;12.43;11.60;;;23.10;99.90;;;;;;5038869;28;20486;-43
2023/07/27 09:24:02;;;;;;;12.00;11.50;;;23.20;99.90;;;;;;5037635;28;20490;-45
2023/07/27 09:26:28;;;;;;;11.93;11.23;;;23.00;99.90;;;;;;5021177;28;20432;-46
2023/07/27 09:28:54;;;;;;;12.57;11.97;;;23.00;99.90;;;;;;5038770;28;20260;-43
2023/07/27 09:31:19;;;;;;;11.80;11.20;;;23.20;99.90;;;;;;5039427;28;20214;-43
2023/07/27 09:33:45;;;;;;;12.00;11.50;;;23.50;99.90;;;;;;5023418;28;20463;-43
2023/07/27 09:36:11;;;;;;;11.80;11.20;;;23.50;99.90;;;;;;5024663;28;20435;-46
2023/07/27 09:38:38;;;;;;;12.43;11.83;;;23.30;99.90;;;;;;5042116;28;20177;-43
2023/07/27 09:41:08;;;;;;;12.00;11.40;;;22.90;99.90;;;;;;5042132;28;20170;-43
2023/07/27 09:43:38;;;;;;;12.50;11.70;;;22.70;99.90;;;;;;5042096;28;20562;-40
2023/07/27 09:46:04;;;;;;;11.40;10.87;;;22.70;99.90;;;;;;5042177;28;20503;-43
2023/07/27 09:48:30;;;;;;;12.77;12.17;;;22.80;99.90;;;;;;5042030;28;20427;-45
2023/07/27 09:50:58;;;;;;;12.70;11.90;;;22.80;99.90;;;;;;5042223;28;20640;-46
2023/07/27 09:53:26;;;;;;;12.63;12.03;;;22.70;99.90;;;;;;5041086;28;20263;-48
2023/07/27 09:55:52;;;;;;;12.30;11.60;;;22.70;99.90;;;;;;5041830;28;20962;-46
2023/07/27 09:58:18;;;;;;;11.40;10.80;;;22.70;99.90;;;;;;5041294;28;20431;-42
2023/07/27 10:00:44;;;;;;;11.80;11.20;;;22.60;99.90;;;;;;5041953;28;20420;-42
2023/07/27 10:03:10;;;;;;;12.13;11.53;;;22.70;99.90;;;;;;5041350;28;20432;-43
2023/07/27 10:05:40;;;;;;;11.73;11.13;;;22.70;99.90;;;;;;5040383;28;20182;-47
2023/07/27 10:08:06;;;;;;;12.20;11.60;;;22.60;99.90;;;;;;5040575;28;20260;-41
2023/07/27 10:10:35;;;;;;;11.53;11.00;;;22.50;99.90;;;;;;5041557;28;20906;-43
2023/07/27 10:13:24;;;;;;;12.20;11.60;;;22.40;99.90;;;;;;5040375;28;20530;-42
2023/07/27 10:15:52;;;;;;;11.60;11.10;;;22.30;99.90;;;;;;5042005;28;20491;-42
2023/07/27 10:18:28;;;;;;;12.70;12.00;;;22.20;99.90;;;;;;5040564;28;20506;-43
2023/07/27 10:21:16;;;;;;;12.87;12.27;;;22.10;99.90;;;;;;5041497;28;20430;-45
2023/07/27 10:23:58;;;;;;;13.07;12.37;;;21.90;99.90;;;;;;5040866;28;20602;-43
2023/07/27 10:26:43;;;;;;;12.43;11.83;;;21.80;99.90;;;;;;5041159;28;20435;-44
2023/07/27 10:29:20;;;;;;;12.77;11.97;;;21.70;99.90;;;;;;5041107;28;20524;-46
2023/07/27 10:32:08;;;;;;;11.50;10.90;;;21.50;99.90;;;;;;5041411;28;20909;-44
2023/07/27 10:34:35;;;;;;;11.63;11.13;;;21.40;99.90;;;;;;5040860;28;20482;-45
2023/07/27 10:37:03;;;;;;;12.47;11.87;;;21.40;99.90;;;;;;5041063;28;20742;-45
2023/07/27 10:39:31;;;;;;;12.90;12.20;;;21.30;99.90;;;;;;5041057;28;21085;-41
2023/07/27 10:42:00;;;;;;;11.80;11.30;;;21.20;99.90;;;;;;5040928;28;20853;-43
2023/07/27 10:44:47;;;;;;;11.83;11.23;;;21.20;99.90;;;;;;5040458;28;20953;-42
2023/07/27 10:47:27;;;;;;;12.60;11.80;;;21.20;99.90;;;;;;5040512;28;20965;-41
2023/07/27 10:49:54;;;;;;;13.00;12.30;;;21.20;99.90;;;;;;5041123;28;20461;-41
2023/07/27 10:52:29;;;;;;;13.07;12.37;;;21.30;99.90;;;;;;5041030;28;20534;-42
2023/07/27 10:54:59;;;;;;;13.03;12.40;;;21.40;99.90;;;;;;5040076;28;20980;-43
2023/07/27 10:57:26;;;;;;;13.47;12.77;;;21.40;99.90;;;;;;5040745;28;20435;-45
2023/07/27 10:59:53;;;;;;;12.40;11.70;;;21.50;99.90;;;;;;5040408;28;20422;-47
2023/07/27 11:02:20;;;;;;;13.40;12.70;;;21.60;99.90;;;;;;5040749;28;20943;-41
2023/07/27 11:04:51;;;;;;;12.17;11.63;;;21.80;99.90;;;;;;5039765;28;21023;-42
2023/07/27 11:07:32;;;;;;;12.00;11.50;;;22.10;99.90;;;;;;5040554;28;20416;-44
2023/07/27 11:10:21;;;;;;;12.30;11.40;;;22.30;99.90;;;;;;5022490;28;20510;-43
2023/07/27 11:12:52;;;;;;;11.90;11.30;;;22.40;99.90;;;;;;5039300;28;20424;-43
2023/07/27 11:15:23;;;;;;;12.50;11.90;;;22.50;99.90;;;;;;5021963;28;20490;-42
2023/07/27 11:17:55;;;;;;;11.73;11.13;;;22.60;99.90;;;;;;5040397;28;20919;-43
2023/07/27 11:20:23;;;;;;;12.30;11.70;;;22.60;99.90;;;;;;5040496;28;21111;-42
2023/07/27 11:22:51;;;;;;;11.30;10.80;;;22.50;99.90;;;;;;5039705;28;20527;-43
2023/07/27 11:25:17;;;;;;;11.73;11.17;;;22.60;99.90;;;;;;5039823;28;20506;-47
2023/07/27 11:27:46;;;;;;;12.00;11.40;;;22.80;99.90;;;;;;5040219;28;20951;-47
2023/07/27 11:30:17;;;;;;;11.63;11.13;;;22.70;99.90;;;;;;5040258;28;21063;-42
2023/07/27 11:32:43;;;;;;;10.37;9.83;;;22.80;99.90;;;;;;5040231;28;20421;-43
2023/07/27 11:35:09;;;;;;;12.27;11.57;;;22.90;99.90;;;;;;5039578;28;20582;-45
2023/07/27 11:37:34;;;;;;;12.07;11.47;;;23.00;99.90;;;;;;5040041;28;20764;-44
2023/07/27 11:40:00;;;;;;;12.00;11.30;;;22.80;99.90;;;;;;5040211;28;20186;-46
2023/07/27 11:42:28;;;;;;;11.83;11.13;;;22.80;99.90;;;;;;5039723;28;20973;-46
2023/07/27 11:44:54;;;;;;;12.13;11.53;;;22.80;99.90;;;;;;5039238;28;20194;-47
2023/07/27 11:47:19;;;;;;;12.00;11.40;;;22.60;99.90;;;;;;5040066;28;20922;-46
2023/07/27 11:49:45;;;;;;;11.43;10.93;;;22.30;99.90;;;;;;5039683;28;20431;-43
2023/07/27 11:52:11;;;;;;;12.87;12.07;;;22.40;99.90;;;;;;5040152;28;20715;-43
2023/07/27 11:54:40;;;;;;;11.60;11.00;;;22.40;99.90;;;;;;5020287;28;20810;-43
2023/07/27 11:57:07;;;;;;;11.70;10.80;;;22.20;99.90;;;;;;5039595;28;20208;-52
2023/07/27 11:59:32;;;;;;;12.27;11.57;;;22.20;99.90;;;;;;5039679;28;20901;-54
2023/07/27 12:01:58;;;;;;;10.00;9.50;;;22.20;99.90;;;;;;5040371;28;20420;-54
2023/07/27 12:04:26;;;;;;;11.83;11.33;;;22.30;99.90;;;;;;5038678;28;20456;-52
2023/07/27 12:06:55;;;;;;;12.63;12.03;;;22.40;99.90;;;;;;5039548;28;20240;-43
2023/07/27 12:09:21;;;;;;;12.33;11.73;;;22.30;99.90;;;;;;5021708;28;20535;-44
2023/07/27 12:11:47;;;;;;;11.80;11.20;;;22.10;99.90;;;;;;5039717;28;20974;-44
2023/07/27 12:14:13;;;;;;;13.23;12.00;;;22.00;99.90;;;;;;5038829;28;20750;-48
2023/07/27 12:16:41;;;;;;;12.03;11.43;;;21.70;99.90;;;;;;5039556;28;20416;-42
2023/07/27 12:19:07;;;;;;;12.40;11.70;;;21.40;99.90;;;;;;5039983;28;20555;-45
2023/07/27 12:21:34;;;;;;;12.40;11.80;;;21.20;99.90;;;;;;5039531;28;20408;-41
2023/07/27 12:24:10;;;;;;;12.37;11.77;;;21.10;99.90;;;;;;5038277;28;20482;-47
2023/07/27 12:26:37;;;;;;;13.90;13.10;;;20.70;99.90;;;;;;5039025;28;20534;-50
2023/07/27 12:29:03;;;;;;;14.90;13.80;;;20.30;1.00;;;;;;5039035;28;20424;-49
2023/07/27 12:31:30;;;;;;;14.10;13.33;;;19.80;1.00;;;;;;5039282;28;20546;-49